sensor_id;sensor_type;location;lat;lon;timestamp;P1;durP1;ratioP1;P2;durP2;ratioP2
75426;SDS011;64007;50.632;13.700;2024-02-16T00:00:58;37.70;;;15.65;;
75426;SDS011;64007;50.632;13.700;2024-02-16T00:03:35;30.10;;;14.07;;
75426;SDS011;64007;50.632;13.700;2024-02-16T00:06:00;30.05;;;13.00;;
75426;SDS011;64007;50.632;13.700;2024-02-16T00:08:26;29.33;;;14.00;;
75426;SDS011;64007;50.632;13.700;2024-02-16T00:10:52;33.88;;;15.40;;
75426;SDS011;64007;50.632;13.700;2024-02-16T00:13:18;39.45;;;17.23;;
75426;SDS011;64007;50.632;13.700;2024-02-16T00:15:43;38.33;;;17.20;;
75426;SDS011;64007;50.632;13.700;2024-02-16T00:18:09;40.13;;;17.20;;
75426;SDS011;64007;50.632;13.700;2024-02-16T00:20:35;37.72;;;17.30;;
75426;SDS011;64007;50.632;13.700;2024-02-16T00:23:00;40.05;;;16.75;;
75426;SDS011;64007;50.632;13.700;2024-02-16T00:25:26;37.53;;;16.67;;
75426;SDS011;64007;50.632;13.700;2024-02-16T00:27:52;29.63;;;15.20;;
75426;SDS011;64007;50.632;13.700;2024-02-16T00:30:18;33.60;;;14.20;;
75426;SDS011;64007;50.632;13.700;2024-02-16T00:32:48;24.00;;;10.52;;
75426;SDS011;64007;50.632;13.700;2024-02-16T00:35:16;27.20;;;11.95;;
75426;SDS011;64007;50.632;13.700;2024-02-16T00:37:43;23.77;;;11.65;;
75426;SDS011;64007;50.632;13.700;2024-02-16T00:40:09;27.25;;;10.93;;
75426;SDS011;64007;50.632;13.700;2024-02-16T00:42:35;22.48;;;10.63;;
75426;SDS011;64007;50.632;13.700;2024-02-16T00:45:01;20.75;;;10.18;;
75426;SDS011;64007;50.632;13.700;2024-02-16T00:47:27;22.95;;;9.60;;
75426;SDS011;64007;50.632;13.700;2024-02-16T00:49:52;19.50;;;8.95;;
75426;SDS011;64007;50.632;13.700;2024-02-16T00:52:19;16.25;;;7.88;;
75426;SDS011;64007;50.632;13.700;2024-02-16T00:54:44;16.13;;;7.45;;
75426;SDS011;64007;50.632;13.700;2024-02-16T00:57:12;16.40;;;8.70;;
75426;SDS011;64007;50.632;13.700;2024-02-16T00:59:41;18.38;;;8.90;;
75426;SDS011;64007;50.632;13.700;2024-02-16T01:02:07;19.77;;;8.32;;
75426;SDS011;64007;50.632;13.700;2024-02-16T01:04:34;18.30;;;7.25;;
75426;SDS011;64007;50.632;13.700;2024-02-16T01:07:00;9.93;;;5.88;;
75426;SDS011;64007;50.632;13.700;2024-02-16T01:09:26;18.00;;;5.93;;
75426;SDS011;64007;50.632;13.700;2024-02-16T01:11:52;12.93;;;6.28;;
75426;SDS011;64007;50.632;13.700;2024-02-16T01:14:18;29.70;;;10.75;;
75426;SDS011;64007;50.632;13.700;2024-02-16T01:16:45;28.60;;;10.70;;
75426;SDS011;64007;50.632;13.700;2024-02-16T01:19:11;47.45;;;13.60;;
75426;SDS011;64007;50.632;13.700;2024-02-16T01:21:36;60.80;;;18.98;;
75426;SDS011;64007;50.632;13.700;2024-02-16T01:24:02;81.88;;;20.27;;
75426;SDS011;64007;50.632;13.700;2024-02-16T01:26:29;96.18;;;19.88;;
75426;SDS011;64007;50.632;13.700;2024-02-16T01:28:54;53.17;;;18.42;;
75426;SDS011;64007;50.632;13.700;2024-02-16T01:31:20;56.22;;;19.45;;
75426;SDS011;64007;50.632;13.700;2024-02-16T01:33:46;63.47;;;21.50;;
75426;SDS011;64007;50.632;13.700;2024-02-16T01:36:12;65.97;;;22.27;;
75426;SDS011;64007;50.632;13.700;2024-02-16T01:38:37;166.57;;;24.63;;
75426;SDS011;64007;50.632;13.700;2024-02-16T01:41:03;140.13;;;24.40;;
75426;SDS011;64007;50.632;13.700;2024-02-16T01:43:30;191.65;;;20.00;;
75426;SDS011;64007;50.632;13.700;2024-02-16T01:45:56;110.82;;;16.40;;
75426;SDS011;64007;50.632;13.700;2024-02-16T01:48:24;76.28;;;15.23;;
75426;SDS011;64007;50.632;13.700;2024-02-16T01:50:50;44.65;;;15.90;;
75426;SDS011;64007;50.632;13.700;2024-02-16T01:53:16;55.22;;;16.50;;
75426;SDS011;64007;50.632;13.700;2024-02-16T01:55:47;44.30;;;15.93;;
75426;SDS011;64007;50.632;13.700;2024-02-16T01:58:13;50.25;;;16.73;;
75426;SDS011;64007;50.632;13.700;2024-02-16T02:00:39;41.20;;;16.17;;
75426;SDS011;64007;50.632;13.700;2024-02-16T02:03:08;44.72;;;17.13;;
75426;SDS011;64007;50.632;13.700;2024-02-16T02:05:34;179.93;;;19.67;;
75426;SDS011;64007;50.632;13.700;2024-02-16T02:08:10;114.93;;;21.17;;
75426;SDS011;64007;50.632;13.700;2024-02-16T02:10:36;90.95;;;21.10;;
75426;SDS011;64007;50.632;13.700;2024-02-16T02:13:01;90.47;;;20.13;;
75426;SDS011;64007;50.632;13.700;2024-02-16T02:15:27;87.63;;;19.67;;
75426;SDS011;64007;50.632;13.700;2024-02-16T02:17:53;78.72;;;19.88;;
75426;SDS011;64007;50.632;13.700;2024-02-16T02:20:19;63.13;;;19.75;;
75426;SDS011;64007;50.632;13.700;2024-02-16T02:22:45;70.03;;;18.77;;
75426;SDS011;64007;50.632;13.700;2024-02-16T02:25:11;63.42;;;19.67;;
75426;SDS011;64007;50.632;13.700;2024-02-16T02:27:37;65.82;;;20.92;;
75426;SDS011;64007;50.632;13.700;2024-02-16T02:30:04;139.32;;;22.85;;
75426;SDS011;64007;50.632;13.700;2024-02-16T02:32:30;124.03;;;21.85;;
75426;SDS011;64007;50.632;13.700;2024-02-16T02:34:56;77.63;;;23.50;;
75426;SDS011;64007;50.632;13.700;2024-02-16T02:37:21;117.45;;;22.85;;
75426;SDS011;64007;50.632;13.700;2024-02-16T02:39:48;165.88;;;25.48;;
75426;SDS011;64007;50.632;13.700;2024-02-16T02:42:13;106.13;;;24.90;;
75426;SDS011;64007;50.632;13.700;2024-02-16T02:44:39;79.95;;;22.70;;
75426;SDS011;64007;50.632;13.700;2024-02-16T02:47:05;103.60;;;23.48;;
75426;SDS011;64007;50.632;13.700;2024-02-16T02:49:31;81.57;;;22.45;;
75426;SDS011;64007;50.632;13.700;2024-02-16T02:52:00;104.80;;;23.38;;
75426;SDS011;64007;50.632;13.700;2024-02-16T02:54:26;64.72;;;22.13;;
75426;SDS011;64007;50.632;13.700;2024-02-16T02:56:51;108.35;;;22.65;;
75426;SDS011;64007;50.632;13.700;2024-02-16T02:59:18;111.55;;;23.88;;
75426;SDS011;64007;50.632;13.700;2024-02-16T03:01:44;56.97;;;21.75;;
75426;SDS011;64007;50.632;13.700;2024-02-16T03:04:11;73.75;;;23.08;;
75426;SDS011;64007;50.632;13.700;2024-02-16T03:06:36;72.05;;;23.00;;
75426;SDS011;64007;50.632;13.700;2024-02-16T03:09:02;131.00;;;21.63;;
75426;SDS011;64007;50.632;13.700;2024-02-16T03:11:28;61.85;;;20.92;;
75426;SDS011;64007;50.632;13.700;2024-02-16T03:13:54;66.38;;;20.98;;
75426;SDS011;64007;50.632;13.700;2024-02-16T03:16:19;65.32;;;20.60;;
75426;SDS011;64007;50.632;13.700;2024-02-16T03:18:45;64.00;;;20.67;;
75426;SDS011;64007;50.632;13.700;2024-02-16T03:21:14;76.43;;;21.45;;
75426;SDS011;64007;50.632;13.700;2024-02-16T03:23:43;72.13;;;20.13;;
75426;SDS011;64007;50.632;13.700;2024-02-16T03:26:15;55.85;;;20.83;;
75426;SDS011;64007;50.632;13.700;2024-02-16T03:28:45;54.47;;;20.23;;
75426;SDS011;64007;50.632;13.700;2024-02-16T03:31:17;79.78;;;21.58;;
75426;SDS011;64007;50.632;13.700;2024-02-16T03:33:48;94.07;;;21.58;;
75426;SDS011;64007;50.632;13.700;2024-02-16T03:36:14;65.63;;;22.27;;
75426;SDS011;64007;50.632;13.700;2024-02-16T03:38:41;85.70;;;23.42;;
75426;SDS011;64007;50.632;13.700;2024-02-16T03:41:08;61.30;;;23.05;;
75426;SDS011;64007;50.632;13.700;2024-02-16T03:43:37;83.35;;;23.10;;
75426;SDS011;64007;50.632;13.700;2024-02-16T03:46:02;63.92;;;21.33;;
75426;SDS011;64007;50.632;13.700;2024-02-16T03:48:28;55.00;;;21.95;;
75426;SDS011;64007;50.632;13.700;2024-02-16T03:50:55;59.75;;;22.50;;
75426;SDS011;64007;50.632;13.700;2024-02-16T03:53:21;57.30;;;22.60;;
75426;SDS011;64007;50.632;13.700;2024-02-16T03:55:46;126.60;;;23.45;;
75426;SDS011;64007;50.632;13.700;2024-02-16T03:58:12;79.70;;;22.73;;
75426;SDS011;64007;50.632;13.700;2024-02-16T04:00:38;173.38;;;23.88;;
75426;SDS011;64007;50.632;13.700;2024-02-16T04:03:04;75.63;;;24.60;;
75426;SDS011;64007;50.632;13.700;2024-02-16T04:05:29;66.40;;;25.17;;
75426;SDS011;64007;50.632;13.700;2024-02-16T04:07:58;66.13;;;23.48;;
75426;SDS011;64007;50.632;13.700;2024-02-16T04:10:27;65.20;;;24.45;;
75426;SDS011;64007;50.632;13.700;2024-02-16T04:12:56;185.40;;;23.45;;
75426;SDS011;64007;50.632;13.700;2024-02-16T04:15:21;123.32;;;19.92;;
75426;SDS011;64007;50.632;13.700;2024-02-16T04:17:47;216.38;;;19.63;;
75426;SDS011;64007;50.632;13.700;2024-02-16T04:20:18;42.22;;;18.73;;
75426;SDS011;64007;50.632;13.700;2024-02-16T04:22:44;57.08;;;21.35;;
75426;SDS011;64007;50.632;13.700;2024-02-16T04:25:09;128.23;;;21.90;;
75426;SDS011;64007;50.632;13.700;2024-02-16T04:27:36;70.30;;;22.55;;
75426;SDS011;64007;50.632;13.700;2024-02-16T04:30:02;138.60;;;21.63;;
75426;SDS011;64007;50.632;13.700;2024-02-16T04:32:30;76.65;;;20.27;;
75426;SDS011;64007;50.632;13.700;2024-02-16T04:34:55;101.38;;;21.75;;
75426;SDS011;64007;50.632;13.700;2024-02-16T04:37:21;49.00;;;19.60;;
75426;SDS011;64007;50.632;13.700;2024-02-16T04:39:48;46.95;;;18.80;;
75426;SDS011;64007;50.632;13.700;2024-02-16T04:42:15;44.92;;;18.58;;
75426;SDS011;64007;50.632;13.700;2024-02-16T04:44:41;40.25;;;17.52;;
75426;SDS011;64007;50.632;13.700;2024-02-16T04:47:07;43.60;;;19.17;;
75426;SDS011;64007;50.632;13.700;2024-02-16T04:49:32;38.97;;;17.95;;
75426;SDS011;64007;50.632;13.700;2024-02-16T04:51:58;34.92;;;15.70;;
75426;SDS011;64007;50.632;13.700;2024-02-16T04:54:24;41.60;;;16.95;;
75426;SDS011;64007;50.632;13.700;2024-02-16T04:56:50;39.97;;;17.58;;
75426;SDS011;64007;50.632;13.700;2024-02-16T04:59:16;43.78;;;18.17;;
75426;SDS011;64007;50.632;13.700;2024-02-16T05:01:43;35.30;;;16.90;;
75426;SDS011;64007;50.632;13.700;2024-02-16T05:04:10;37.67;;;16.42;;
75426;SDS011;64007;50.632;13.700;2024-02-16T05:06:38;36.90;;;16.98;;
75426;SDS011;64007;50.632;13.700;2024-02-16T05:09:05;39.42;;;17.83;;
75426;SDS011;64007;50.632;13.700;2024-02-16T05:11:34;37.72;;;17.33;;
75426;SDS011;64007;50.632;13.700;2024-02-16T05:14:00;34.53;;;16.42;;
75426;SDS011;64007;50.632;13.700;2024-02-16T05:16:26;34.20;;;15.82;;
75426;SDS011;64007;50.632;13.700;2024-02-16T05:18:52;38.78;;;16.65;;
75426;SDS011;64007;50.632;13.700;2024-02-16T05:21:18;33.90;;;16.02;;
75426;SDS011;64007;50.632;13.700;2024-02-16T05:23:43;32.08;;;15.45;;
75426;SDS011;64007;50.632;13.700;2024-02-16T05:26:09;28.63;;;15.00;;
75426;SDS011;64007;50.632;13.700;2024-02-16T05:28:34;30.30;;;15.27;;
75426;SDS011;64007;50.632;13.700;2024-02-16T05:31:04;29.17;;;15.73;;
75426;SDS011;64007;50.632;13.700;2024-02-16T05:33:40;35.72;;;15.90;;
75426;SDS011;64007;50.632;13.700;2024-02-16T05:36:06;27.40;;;14.27;;
75426;SDS011;64007;50.632;13.700;2024-02-16T05:38:32;28.27;;;14.95;;
75426;SDS011;64007;50.632;13.700;2024-02-16T05:41:00;30.77;;;14.30;;
75426;SDS011;64007;50.632;13.700;2024-02-16T05:43:26;29.95;;;14.80;;
75426;SDS011;64007;50.632;13.700;2024-02-16T05:45:52;27.75;;;14.30;;
75426;SDS011;64007;50.632;13.700;2024-02-16T05:48:17;31.25;;;15.90;;
75426;SDS011;64007;50.632;13.700;2024-02-16T05:50:44;32.80;;;14.75;;
75426;SDS011;64007;50.632;13.700;2024-02-16T05:53:10;31.90;;;15.32;;
75426;SDS011;64007;50.632;13.700;2024-02-16T05:55:36;29.45;;;13.90;;
75426;SDS011;64007;50.632;13.700;2024-02-16T05:58:02;29.80;;;14.30;;
75426;SDS011;64007;50.632;13.700;2024-02-16T06:00:34;33.90;;;15.93;;
75426;SDS011;64007;50.632;13.700;2024-02-16T06:03:00;35.25;;;16.63;;
75426;SDS011;64007;50.632;13.700;2024-02-16T06:05:26;36.63;;;17.25;;
75426;SDS011;64007;50.632;13.700;2024-02-16T06:07:53;39.25;;;19.58;;
75426;SDS011;64007;50.632;13.700;2024-02-16T06:10:19;40.45;;;20.77;;
75426;SDS011;64007;50.632;13.700;2024-02-16T06:12:44;47.38;;;21.45;;
75426;SDS011;64007;50.632;13.700;2024-02-16T06:15:10;49.20;;;22.20;;
75426;SDS011;64007;50.632;13.700;2024-02-16T06:17:36;44.10;;;22.90;;
75426;SDS011;64007;50.632;13.700;2024-02-16T06:20:02;43.67;;;21.85;;
75426;SDS011;64007;50.632;13.700;2024-02-16T06:22:29;43.92;;;22.75;;
75426;SDS011;64007;50.632;13.700;2024-02-16T06:24:57;48.38;;;23.13;;
75426;SDS011;64007;50.632;13.700;2024-02-16T06:27:22;47.38;;;22.60;;
75426;SDS011;64007;50.632;13.700;2024-02-16T06:29:49;48.60;;;22.90;;
75426;SDS011;64007;50.632;13.700;2024-02-16T06:32:15;40.50;;;20.92;;
75426;SDS011;64007;50.632;13.700;2024-02-16T06:34:42;40.50;;;22.50;;
75426;SDS011;64007;50.632;13.700;2024-02-16T06:37:08;37.17;;;21.65;;
75426;SDS011;64007;50.632;13.700;2024-02-16T06:39:34;41.22;;;21.88;;
75426;SDS011;64007;50.632;13.700;2024-02-16T06:41:59;38.70;;;21.27;;
75426;SDS011;64007;50.632;13.700;2024-02-16T06:44:25;38.92;;;20.98;;
75426;SDS011;64007;50.632;13.700;2024-02-16T06:46:51;35.58;;;19.77;;
75426;SDS011;64007;50.632;13.700;2024-02-16T06:49:17;38.88;;;20.10;;
75426;SDS011;64007;50.632;13.700;2024-02-16T06:51:43;40.25;;;20.90;;
75426;SDS011;64007;50.632;13.700;2024-02-16T06:54:10;41.38;;;21.23;;
75426;SDS011;64007;50.632;13.700;2024-02-16T06:56:36;44.50;;;23.73;;
75426;SDS011;64007;50.632;13.700;2024-02-16T06:59:02;48.50;;;23.70;;
75426;SDS011;64007;50.632;13.700;2024-02-16T07:01:28;46.80;;;22.67;;
75426;SDS011;64007;50.632;13.700;2024-02-16T07:03:54;46.45;;;22.75;;
75426;SDS011;64007;50.632;13.700;2024-02-16T07:06:20;54.05;;;25.02;;
75426;SDS011;64007;50.632;13.700;2024-02-16T07:08:46;51.35;;;26.00;;
75426;SDS011;64007;50.632;13.700;2024-02-16T07:11:12;57.75;;;26.40;;
75426;SDS011;64007;50.632;13.700;2024-02-16T07:13:38;55.30;;;25.10;;
75426;SDS011;64007;50.632;13.700;2024-02-16T07:16:05;49.20;;;25.67;;
75426;SDS011;64007;50.632;13.700;2024-02-16T07:18:32;50.95;;;24.80;;
75426;SDS011;64007;50.632;13.700;2024-02-16T07:20:58;49.00;;;24.63;;
75426;SDS011;64007;50.632;13.700;2024-02-16T07:23:25;53.92;;;26.98;;
75426;SDS011;64007;50.632;13.700;2024-02-16T07:25:51;51.53;;;25.55;;
75426;SDS011;64007;50.632;13.700;2024-02-16T07:28:20;56.47;;;26.23;;
75426;SDS011;64007;50.632;13.700;2024-02-16T07:30:46;51.25;;;26.05;;
75426;SDS011;64007;50.632;13.700;2024-02-16T07:33:12;55.28;;;27.30;;
75426;SDS011;64007;50.632;13.700;2024-02-16T07:35:38;56.88;;;26.90;;
75426;SDS011;64007;50.632;13.700;2024-02-16T07:38:04;52.50;;;26.80;;
75426;SDS011;64007;50.632;13.700;2024-02-16T07:40:30;50.50;;;24.67;;
75426;SDS011;64007;50.632;13.700;2024-02-16T07:42:56;56.92;;;27.63;;
75426;SDS011;64007;50.632;13.700;2024-02-16T07:45:22;55.75;;;25.98;;
75426;SDS011;64007;50.632;13.700;2024-02-16T07:47:48;53.72;;;25.52;;
75426;SDS011;64007;50.632;13.700;2024-02-16T07:50:17;59.03;;;27.50;;
75426;SDS011;64007;50.632;13.700;2024-02-16T07:52:44;49.53;;;25.63;;
75426;SDS011;64007;50.632;13.700;2024-02-16T07:55:09;52.70;;;25.75;;
75426;SDS011;64007;50.632;13.700;2024-02-16T07:57:36;48.40;;;24.42;;
75426;SDS011;64007;50.632;13.700;2024-02-16T08:00:02;49.15;;;24.88;;
75426;SDS011;64007;50.632;13.700;2024-02-16T08:02:31;49.13;;;23.55;;
75426;SDS011;64007;50.632;13.700;2024-02-16T08:04:57;54.40;;;25.13;;
75426;SDS011;64007;50.632;13.700;2024-02-16T08:07:24;58.05;;;25.52;;
75426;SDS011;64007;50.632;13.700;2024-02-16T08:09:49;51.78;;;24.23;;
75426;SDS011;64007;50.632;13.700;2024-02-16T08:12:15;49.45;;;24.77;;
75426;SDS011;64007;50.632;13.700;2024-02-16T08:14:41;47.63;;;24.02;;
75426;SDS011;64007;50.632;13.700;2024-02-16T08:17:08;49.13;;;23.50;;
75426;SDS011;64007;50.632;13.700;2024-02-16T08:19:35;51.17;;;24.38;;
75426;SDS011;64007;50.632;13.700;2024-02-16T08:22:02;52.53;;;23.55;;
75426;SDS011;64007;50.632;13.700;2024-02-16T08:24:32;47.67;;;24.70;;
75426;SDS011;64007;50.632;13.700;2024-02-16T08:26:58;54.53;;;24.00;;
75426;SDS011;64007;50.632;13.700;2024-02-16T08:29:24;54.78;;;24.58;;
75426;SDS011;64007;50.632;13.700;2024-02-16T08:31:51;53.15;;;24.55;;
75426;SDS011;64007;50.632;13.700;2024-02-16T08:34:17;49.83;;;24.33;;
75426;SDS011;64007;50.632;13.700;2024-02-16T08:36:44;51.00;;;24.83;;
75426;SDS011;64007;50.632;13.700;2024-02-16T08:39:10;58.03;;;24.02;;
75426;SDS011;64007;50.632;13.700;2024-02-16T08:41:39;51.42;;;25.98;;
75426;SDS011;64007;50.632;13.700;2024-02-16T08:44:06;53.53;;;25.92;;
75426;SDS011;64007;50.632;13.700;2024-02-16T08:46:35;62.35;;;27.88;;
75426;SDS011;64007;50.632;13.700;2024-02-16T08:49:04;59.42;;;26.98;;
75426;SDS011;64007;50.632;13.700;2024-02-16T08:51:33;59.38;;;26.85;;
75426;SDS011;64007;50.632;13.700;2024-02-16T08:53:59;58.17;;;26.23;;
75426;SDS011;64007;50.632;13.700;2024-02-16T08:56:27;55.70;;;25.95;;
75426;SDS011;64007;50.632;13.700;2024-02-16T08:58:53;56.15;;;24.63;;
75426;SDS011;64007;50.632;13.700;2024-02-16T09:01:18;51.70;;;25.05;;
75426;SDS011;64007;50.632;13.700;2024-02-16T09:03:44;52.30;;;24.30;;
75426;SDS011;64007;50.632;13.700;2024-02-16T09:06:10;58.75;;;26.38;;
75426;SDS011;64007;50.632;13.700;2024-02-16T09:08:36;54.55;;;25.50;;
75426;SDS011;64007;50.632;13.700;2024-02-16T09:11:02;56.63;;;26.58;;
75426;SDS011;64007;50.632;13.700;2024-02-16T09:13:34;61.13;;;27.83;;
75426;SDS011;64007;50.632;13.700;2024-02-16T09:16:01;67.53;;;27.42;;
75426;SDS011;64007;50.632;13.700;2024-02-16T09:18:28;65.43;;;28.10;;
75426;SDS011;64007;50.632;13.700;2024-02-16T09:20:55;75.70;;;31.02;;
75426;SDS011;64007;50.632;13.700;2024-02-16T09:23:20;83.68;;;31.83;;
75426;SDS011;64007;50.632;13.700;2024-02-16T09:25:46;68.68;;;30.02;;
75426;SDS011;64007;50.632;13.700;2024-02-16T09:28:12;63.22;;;28.38;;
75426;SDS011;64007;50.632;13.700;2024-02-16T09:30:38;62.72;;;28.05;;
75426;SDS011;64007;50.632;13.700;2024-02-16T09:33:04;58.13;;;27.65;;
75426;SDS011;64007;50.632;13.700;2024-02-16T09:35:30;62.20;;;28.13;;
75426;SDS011;64007;50.632;13.700;2024-02-16T09:37:56;61.03;;;27.55;;
75426;SDS011;64007;50.632;13.700;2024-02-16T09:40:22;57.20;;;26.48;;
75426;SDS011;64007;50.632;13.700;2024-02-16T09:42:48;71.88;;;32.50;;
75426;SDS011;64007;50.632;13.700;2024-02-16T09:45:15;68.20;;;29.52;;
75426;SDS011;64007;50.632;13.700;2024-02-16T09:47:46;66.88;;;27.08;;
75426;SDS011;64007;50.632;13.700;2024-02-16T09:50:13;76.70;;;30.23;;
75426;SDS011;64007;50.632;13.700;2024-02-16T09:52:39;72.00;;;29.10;;
75426;SDS011;64007;50.632;13.700;2024-02-16T09:55:09;71.95;;;30.02;;
75426;SDS011;64007;50.632;13.700;2024-02-16T09:57:38;79.13;;;30.75;;
75426;SDS011;64007;50.632;13.700;2024-02-16T10:00:04;71.63;;;29.38;;
75426;SDS011;64007;50.632;13.700;2024-02-16T10:02:39;63.97;;;26.58;;
75426;SDS011;64007;50.632;13.700;2024-02-16T10:05:12;69.00;;;27.30;;
75426;SDS011;64007;50.632;13.700;2024-02-16T10:07:45;58.65;;;27.77;;
75426;SDS011;64007;50.632;13.700;2024-02-16T10:12:49;63.97;;;27.38;;
75426;SDS011;64007;50.632;13.700;2024-02-16T10:15:19;60.47;;;27.63;;
75426;SDS011;64007;50.632;13.700;2024-02-16T10:20:33;54.30;;;24.27;;
75426;SDS011;64007;50.632;13.700;2024-02-16T10:25:29;52.72;;;23.92;;
75426;SDS011;64007;50.632;13.700;2024-02-16T10:27:56;63.28;;;24.70;;
75426;SDS011;64007;50.632;13.700;2024-02-16T10:30:45;49.30;;;23.98;;
75426;SDS011;64007;50.632;13.700;2024-02-16T10:33:09;50.47;;;23.73;;
75426;SDS011;64007;50.632;13.700;2024-02-16T10:35:39;46.92;;;23.67;;
75426;SDS011;64007;50.632;13.700;2024-02-16T10:38:07;54.47;;;22.23;;
75426;SDS011;64007;50.632;13.700;2024-02-16T10:40:41;46.30;;;24.08;;
75426;SDS011;64007;50.632;13.700;2024-02-16T10:43:07;55.10;;;24.25;;
75426;SDS011;64007;50.632;13.700;2024-02-16T10:45:35;55.08;;;25.13;;
75426;SDS011;64007;50.632;13.700;2024-02-16T10:48:03;55.95;;;24.27;;
75426;SDS011;64007;50.632;13.700;2024-02-16T10:50:31;44.15;;;21.70;;
75426;SDS011;64007;50.632;13.700;2024-02-16T10:55:34;43.20;;;21.60;;
75426;SDS011;64007;50.632;13.700;2024-02-16T10:58:00;46.78;;;22.92;;
75426;SDS011;64007;50.632;13.700;2024-02-16T11:00:26;40.88;;;22.65;;
75426;SDS011;64007;50.632;13.700;2024-02-16T11:05:41;44.88;;;22.50;;
75426;SDS011;64007;50.632;13.700;2024-02-16T11:08:16;46.08;;;22.98;;
75426;SDS011;64007;50.632;13.700;2024-02-16T11:10:56;53.20;;;23.58;;
75426;SDS011;64007;50.632;13.700;2024-02-16T11:13:23;44.80;;;22.60;;
75426;SDS011;64007;50.632;13.700;2024-02-16T11:15:59;49.05;;;22.95;;
75426;SDS011;64007;50.632;13.700;2024-02-16T11:18:30;48.42;;;23.92;;
75426;SDS011;64007;50.632;13.700;2024-02-16T11:21:00;43.55;;;22.15;;
75426;SDS011;64007;50.632;13.700;2024-02-16T11:23:27;43.42;;;23.42;;
75426;SDS011;64007;50.632;13.700;2024-02-16T11:26:03;48.95;;;24.08;;
75426;SDS011;64007;50.632;13.700;2024-02-16T11:28:34;49.95;;;25.48;;
75426;SDS011;64007;50.632;13.700;2024-02-16T11:31:01;56.97;;;22.83;;
75426;SDS011;64007;50.632;13.700;2024-02-16T11:33:28;49.90;;;22.73;;
75426;SDS011;64007;50.632;13.700;2024-02-16T11:36:04;39.80;;;20.95;;
75426;SDS011;64007;50.632;13.700;2024-02-16T11:38:31;45.70;;;23.42;;
75426;SDS011;64007;50.632;13.700;2024-02-16T11:41:03;50.47;;;22.42;;
75426;SDS011;64007;50.632;13.700;2024-02-16T11:43:31;49.40;;;22.35;;
75426;SDS011;64007;50.632;13.700;2024-02-16T11:46:10;50.58;;;22.25;;
75426;SDS011;64007;50.632;13.700;2024-02-16T11:48:37;45.33;;;21.42;;
75426;SDS011;64007;50.632;13.700;2024-02-16T11:51:03;45.60;;;21.77;;
75426;SDS011;64007;50.632;13.700;2024-02-16T11:53:29;45.05;;;21.92;;
75426;SDS011;64007;50.632;13.700;2024-02-16T11:55:56;43.20;;;21.50;;
75426;SDS011;64007;50.632;13.700;2024-02-16T11:58:22;45.88;;;20.85;;
75426;SDS011;64007;50.632;13.700;2024-02-16T12:00:49;42.55;;;20.50;;
75426;SDS011;64007;50.632;13.700;2024-02-16T12:05:52;46.70;;;21.08;;
75426;SDS011;64007;50.632;13.700;2024-02-16T12:08:19;40.97;;;20.13;;
75426;SDS011;64007;50.632;13.700;2024-02-16T12:10:48;46.13;;;20.90;;
75426;SDS011;64007;50.632;13.700;2024-02-16T12:13:18;41.65;;;20.13;;
75426;SDS011;64007;50.632;13.700;2024-02-16T12:15:50;47.35;;;20.55;;
75426;SDS011;64007;50.632;13.700;2024-02-16T12:18:23;41.38;;;20.05;;
75426;SDS011;64007;50.632;13.700;2024-02-16T12:21:00;41.90;;;20.95;;
75426;SDS011;64007;50.632;13.700;2024-02-16T12:23:31;44.45;;;21.30;;
75426;SDS011;64007;50.632;13.700;2024-02-16T12:26:00;45.90;;;21.55;;
75426;SDS011;64007;50.632;13.700;2024-02-16T12:28:29;53.90;;;24.23;;
75426;SDS011;64007;50.632;13.700;2024-02-16T12:30:59;49.60;;;21.40;;
75426;SDS011;64007;50.632;13.700;2024-02-16T12:33:25;47.60;;;22.30;;
75426;SDS011;64007;50.632;13.700;2024-02-16T12:35:52;42.78;;;21.50;;
75426;SDS011;64007;50.632;13.700;2024-02-16T12:38:17;43.05;;;21.08;;
75426;SDS011;64007;50.632;13.700;2024-02-16T12:40:48;44.28;;;22.38;;
75426;SDS011;64007;50.632;13.700;2024-02-16T12:43:14;51.78;;;23.05;;
75426;SDS011;64007;50.632;13.700;2024-02-16T12:45:40;51.88;;;21.48;;
75426;SDS011;64007;50.632;13.700;2024-02-16T12:48:06;49.00;;;22.67;;
75426;SDS011;64007;50.632;13.700;2024-02-16T12:50:33;45.17;;;22.60;;
75426;SDS011;64007;50.632;13.700;2024-02-16T12:52:58;52.47;;;23.95;;
75426;SDS011;64007;50.632;13.700;2024-02-16T12:55:24;45.40;;;21.40;;
75426;SDS011;64007;50.632;13.700;2024-02-16T12:57:50;42.85;;;22.75;;
75426;SDS011;64007;50.632;13.700;2024-02-16T13:00:16;49.88;;;23.98;;
75426;SDS011;64007;50.632;13.700;2024-02-16T13:02:42;51.22;;;23.88;;
75426;SDS011;64007;50.632;13.700;2024-02-16T13:05:08;48.88;;;23.52;;
75426;SDS011;64007;50.632;13.700;2024-02-16T13:07:36;51.05;;;24.02;;
75426;SDS011;64007;50.632;13.700;2024-02-16T13:10:04;55.95;;;23.70;;
75426;SDS011;64007;50.632;13.700;2024-02-16T13:12:30;51.25;;;25.25;;
75426;SDS011;64007;50.632;13.700;2024-02-16T13:14:57;53.30;;;25.58;;
75426;SDS011;64007;50.632;13.700;2024-02-16T13:17:22;49.92;;;24.75;;
75426;SDS011;64007;50.632;13.700;2024-02-16T13:19:48;47.80;;;23.80;;
75426;SDS011;64007;50.632;13.700;2024-02-16T13:22:14;49.40;;;23.83;;
75426;SDS011;64007;50.632;13.700;2024-02-16T13:24:40;59.45;;;26.50;;
75426;SDS011;64007;50.632;13.700;2024-02-16T13:27:06;49.38;;;24.45;;
75426;SDS011;64007;50.632;13.700;2024-02-16T13:29:32;55.22;;;24.92;;
75426;SDS011;64007;50.632;13.700;2024-02-16T13:31:58;59.97;;;27.20;;
75426;SDS011;64007;50.632;13.700;2024-02-16T13:34:24;51.40;;;23.25;;
75426;SDS011;64007;50.632;13.700;2024-02-16T13:36:52;50.78;;;25.48;;
75426;SDS011;64007;50.632;13.700;2024-02-16T13:39:18;53.53;;;26.38;;
75426;SDS011;64007;50.632;13.700;2024-02-16T13:41:45;51.72;;;24.23;;
75426;SDS011;64007;50.632;13.700;2024-02-16T13:44:12;51.20;;;24.17;;
75426;SDS011;64007;50.632;13.700;2024-02-16T13:46:38;57.33;;;25.05;;
75426;SDS011;64007;50.632;13.700;2024-02-16T13:49:04;52.28;;;26.20;;
75426;SDS011;64007;50.632;13.700;2024-02-16T13:51:29;65.35;;;30.70;;
75426;SDS011;64007;50.632;13.700;2024-02-16T13:53:55;68.78;;;30.27;;
75426;SDS011;64007;50.632;13.700;2024-02-16T13:56:21;54.33;;;26.67;;
75426;SDS011;64007;50.632;13.700;2024-02-16T13:58:47;49.42;;;24.83;;
75426;SDS011;64007;50.632;13.700;2024-02-16T14:01:13;53.70;;;25.27;;
75426;SDS011;64007;50.632;13.700;2024-02-16T14:03:40;59.45;;;27.20;;
75426;SDS011;64007;50.632;13.700;2024-02-16T14:06:06;63.63;;;28.63;;
75426;SDS011;64007;50.632;13.700;2024-02-16T14:08:35;66.22;;;29.88;;
75426;SDS011;64007;50.632;13.700;2024-02-16T14:11:01;67.93;;;29.70;;
75426;SDS011;64007;50.632;13.700;2024-02-16T14:13:27;66.38;;;29.67;;
75426;SDS011;64007;50.632;13.700;2024-02-16T14:15:54;64.72;;;30.27;;
75426;SDS011;64007;50.632;13.700;2024-02-16T14:18:19;64.65;;;28.73;;
75426;SDS011;64007;50.632;13.700;2024-02-16T14:20:45;69.72;;;30.08;;
75426;SDS011;64007;50.632;13.700;2024-02-16T14:23:11;71.35;;;29.92;;